Time;durP1;ratioP1;P1;durP2;ratioP2;P2;SDS_P1;SDS_P2;PMS_P1;PMS_P2;Temp;Humidity;BMP_temperature;BMP_pressure;BME280_temperature;BME280_humidity;BME280_pressure;Samples;Min_cycle;Max_cycle;Signal;HPM_P1;HPM_P2
2022/10/24 00:00:31;;;;;;;;;14.75;12.25;;;;;21.45;60.97;98941.25;5010841;28;45352;-72
2022/10/24 00:02:57;;;;;;;;;14.50;11.25;;;;;21.45;61.90;98966.22;5015914;28;45543;-71
2022/10/24 00:05:23;;;;;;;;;14.75;10.50;;;;;21.39;62.17;98958.72;5015634;28;45452;-72
2022/10/24 00:07:49;;;;;;;;;13.50;12.50;;;;;21.35;63.33;98959.97;5015243;28;45451;-72
2022/10/24 00:10:15;;;;;;;;;13.00;12.00;;;;;21.28;64.10;98956.16;5015695;28;45442;-72
2022/10/24 00:12:41;;;;;;;;;15.75;12.00;;;;;21.27;63.51;98956.28;5016017;28;45314;-72
2022/10/24 00:15:06;;;;;;;;;13.00;9.50;;;;;21.26;63.55;98976.03;5015576;28;46523;-73
2022/10/24 00:17:32;;;;;;;;;17.25;14.50;;;;;21.23;64.38;98972.63;5015611;28;45325;-73
2022/10/24 00:19:59;;;;;;;;;19.25;14.50;;;;;21.21;64.20;98971.91;5014420;28;45345;-70
2022/10/24 00:22:25;;;;;;;;;11.75;10.50;;;;;21.21;64.14;98982.63;4993638;28;45393;-73
2022/10/24 00:24:51;;;;;;;;;15.00;13.00;;;;;21.25;63.83;98988.59;4995495;28;45636;-72
2022/10/24 00:27:16;;;;;;;;;15.75;11.75;;;;;21.25;64.41;98996.63;4995684;28;45441;-71
2022/10/24 00:29:41;;;;;;;;;15.25;14.25;;;;;21.23;64.93;99001.25;4998480;28;45725;-71
2022/10/24 00:32:07;;;;;;;;;17.00;11.50;;;;;21.21;64.58;98996.03;5015403;28;45397;-72
2022/10/24 00:34:32;;;;;;;;;15.50;10.25;;;;;21.20;64.83;99015.78;5015374;28;45401;-73
2022/10/24 00:36:58;;;;;;;;;15.00;13.00;;;;;21.22;63.41;99021.03;5013501;28;45421;-73
2022/10/24 00:39:23;;;;;;;;;17.50;14.00;;;;;21.20;64.19;99025.66;5015474;28;45834;-73
2022/10/24 00:41:49;;;;;;;;;15.75;12.25;;;;;21.20;63.21;99018.47;5008002;28;45492;-72
2022/10/24 00:44:18;;;;;;;;;13.25;11.00;;;;;21.21;63.59;99017.47;5010338;28;47465;-73
2022/10/24 00:46:49;;;;;;;;;16.60;10.20;;;;;21.21;62.73;99022.00;4994960;28;45352;-73
2022/10/24 00:49:20;;;;;;;;;14.00;11.80;;;;;21.23;61.80;99017.34;5008136;28;45495;-72
2022/10/24 00:51:49;;;;;;;;;10.25;8.00;;;;;21.22;60.97;99016.50;5014850;28;45192;-73
2022/10/24 00:54:16;;;;;;;;;9.80;8.60;;;;;21.22;60.53;99013.81;5014822;28;45493;-72
2022/10/24 00:57:05;;;;;;;;;9.20;8.00;;;;;21.22;60.03;99018.34;5015172;28;45565;-73
2022/10/24 00:59:33;;;;;;;;;13.00;9.80;;;;;21.20;60.00;99010.41;5015081;28;45358;-73
2022/10/24 01:01:59;;;;;;;;;10.00;8.25;;;;;21.18;59.84;99006.97;5014685;28;45462;-72
2022/10/24 01:04:24;;;;;;;;;13.00;10.50;;;;;21.17;60.17;99015.16;5014825;28;46587;-73
2022/10/24 01:07:14;;;;;;;;;12.50;11.00;;;;;21.15;59.85;99023.31;5014292;28;45445;-72
2022/10/24 01:10:07;;;;;;;;;11.60;7.60;;;;;21.10;59.87;99030.94;5004869;28;45486;-72
2022/10/24 01:12:32;;;;;;;;;11.25;9.50;;;;;21.07;60.03;99025.81;5002385;28;45379;-73
2022/10/24 01:15:10;;;;;;;;;14.50;9.00;;;;;21.04;59.59;99010.00;5014611;28;45571;-73
2022/10/24 01:17:54;;;;;;;;;10.60;9.20;;;;;20.99;60.14;99008.66;5014534;28;45454;-73
2022/10/24 01:20:33;;;;;;;;;9.25;8.50;;;;;20.94;59.92;99000.19;5014356;28;45395;-73
2022/10/24 01:23:10;;;;;;;;;9.75;8.00;;;;;20.90;59.71;98996.91;5014216;28;45437;-71
2022/10/24 01:26:06;;;;;;;;;10.00;9.40;;;;;20.86;59.71;98992.78;5014490;28;46585;-71
2022/10/24 01:28:39;;;;;;;;;10.20;7.60;;;;;20.84;59.98;98998.28;5009195;28;45552;-71
2022/10/24 01:31:14;;;;;;;;;9.00;9.00;;;;;20.81;59.82;99001.19;5010034;28;45435;-71
2022/10/24 01:33:49;;;;;;;;;10.25;9.00;;;;;20.79;60.24;98996.94;5017017;28;45784;-71
2022/10/24 01:36:24;;;;;;;;;9.60;7.80;;;;;20.77;60.19;98993.56;5014265;28;46490;-71
2022/10/24 01:38:55;;;;;;;;;13.00;9.20;;;;;20.76;60.55;98998.09;5014220;28;45580;-71
2022/10/24 01:41:25;;;;;;;;;15.20;10.60;;;;;20.73;60.13;98994.81;5016304;28;45417;-71
2022/10/24 01:44:15;;;;;;;;;10.00;3.25;;;;;20.68;60.73;99013.06;5007091;28;45453;-71
2022/10/24 01:46:50;;;;;;;;;12.25;10.25;;;;;20.66;60.69;99023.06;5005469;28;45426;-71
2022/10/24 01:49:17;;;;;;;;;14.40;10.40;;;;;20.61;61.11;99009.22;5017756;28;45342;-71
2022/10/24 01:51:46;;;;;;;;;12.80;9.60;;;;;20.56;61.84;99001.56;5017744;28;45342;-71
2022/10/24 01:54:12;;;;;;;;;13.00;11.00;;;;;20.55;61.82;99013.25;5001491;28;45515;-71
2022/10/24 01:56:37;;;;;;;;;12.20;9.40;;;;;20.53;62.36;99005.34;4997596;28;46572;-71
2022/10/24 01:59:26;;;;;;;;;11.75;10.25;;;;;20.51;63.04;98998.41;5000673;28;45343;-70
2022/10/24 02:02:05;;;;;;;;;9.60;8.40;;;;;20.48;62.86;99002.19;5017941;28;45552;-73
2022/10/24 02:04:33;;;;;;;;;12.25;10.75;;;;;20.47;63.81;99000.47;5010408;28;45399;-71
2022/10/24 02:07:02;;;;;;;;;10.00;8.50;;;;;20.46;63.83;99006.81;5007304;28;46432;-72
2022/10/24 02:09:29;;;;;;;;;11.00;11.00;;;;;20.44;63.61;99006.09;5008408;28;45441;-72
2022/10/24 02:11:57;;;;;;;;;11.20;10.40;;;;;20.42;64.26;99010.75;4997539;28;45327;-71
2022/10/24 02:14:47;;;;;;;;;16.00;12.00;;;;;20.40;64.52;99009.16;5005402;28;45338;-71
2022/10/24 02:17:13;;;;;;;;;17.40;12.20;;;;;20.38;64.55;99005.75;4997648;28;47925;-72
2022/10/24 02:19:38;;;;;;;;;17.50;10.50;;;;;20.37;65.01;99001.38;5016628;28;45513;-71
2022/10/24 02:22:20;;;;;;;;;13.50;12.25;;;;;20.37;65.95;99001.38;4997175;28;45394;-71
2022/10/24 02:24:55;;;;;;;;;19.25;11.50;;;;;20.38;65.95;98989.69;4996048;28;45310;-71
2022/10/24 02:27:31;;;;;;;;;14.75;12.00;;;;;20.36;66.77;98984.47;4997408;28;46402;-72
2022/10/24 02:30:03;;;;;;;;;15.60;14.00;;;;;20.37;66.58;98993.34;4997393;28;45393;-72
2022/10/24 02:32:40;;;;;;;;;12.75;11.50;;;;;20.36;66.85;98989.81;4996052;28;45394;-71
2022/10/24 02:35:08;;;;;;;;;14.50;10.75;;;;;20.36;66.64;98984.47;5004082;28;45459;-71
2022/10/24 02:37:38;;;;;;;;;13.60;11.20;;;;;20.35;66.50;98992.59;5016365;28;46208;-71
2022/10/24 02:40:07;;;;;;;;;14.40;14.00;;;;;20.31;66.65;98994.66;5017064;28;45180;-72
2022/10/24 02:42:33;;;;;;;;;14.50;12.75;;;;;20.28;66.63;98984.19;5001252;28;45422;-72
2022/10/24 02:45:00;;;;;;;;;13.75;11.50;;;;;20.27;66.87;98987.03;5005290;28;45542;-72
2022/10/24 02:47:28;;;;;;;;;16.00;12.00;;;;;20.26;66.54;98988.84;5001996;28;45429;-72
2022/10/24 02:49:54;;;;;;;;;11.80;9.80;;;;;20.25;66.50;98986.28;4997076;28;45453;-71
2022/10/24 02:52:22;;;;;;;;;18.50;15.00;;;;;20.25;66.61;98989.81;4994791;28;45390;-73
2022/10/24 02:54:48;;;;;;;;;22.50;13.50;;;;;20.25;66.72;98986.28;4997003;28;45488;-71
2022/10/24 02:57:14;;;;;;;;;13.50;12.00;;;;;20.24;66.69;98988.13;4998974;28;46422;-73
2022/10/24 02:59:39;;;;;;;;;13.00;9.50;;;;;20.21;66.93;98991.91;5016794;28;45380;-72
2022/10/24 03:02:05;;;;;;;;;15.50;12.75;;;;;20.17;67.55;98987.75;5016818;28;45518;-72
2022/10/24 03:04:31;;;;;;;;;16.00;11.75;;;;;20.15;67.35;98980.81;5016905;28;45588;-72
2022/10/24 03:06:56;;;;;;;;;19.00;13.00;;;;;20.12;67.66;98992.63;5014764;28;46952;-72
2022/10/24 03:09:21;;;;;;;;;18.00;14.25;;;;;20.08;67.29;98980.50;5007632;28;45471;-73
2022/10/24 03:11:47;;;;;;;;;20.00;14.00;;;;;20.04;67.40;98979.03;4995519;28;45376;-72
2022/10/24 03:14:12;;;;;;;;;15.75;13.25;;;;;20.00;67.71;98987.41;4996645;28;45323;-72
2022/10/24 03:16:38;;;;;;;;;16.00;12.50;;;;;19.98;68.64;98995.56;4997209;28;46513;-72
2022/10/24 03:19:03;;;;;;;;;16.50;13.25;;;;;19.98;68.49;98981.34;5007989;28;45424;-72
2022/10/24 03:21:28;;;;;;;;;12.50;11.75;;;;;19.97;68.93;98991.19;4995873;28;45264;-72
2022/10/24 03:23:54;;;;;;;;;15.75;15.50;;;;;19.96;69.27;99002.00;5002265;28;45410;-72
2022/10/24 03:26:19;;;;;;;;;12.75;8.75;;;;;19.95;69.17;98985.09;5001339;28;45312;-71
2022/10/24 03:28:45;;;;;;;;;13.75;13.25;;;;;19.94;68.61;98983.41;4995466;28;45437;-71
2022/10/24 03:31:10;;;;;;;;;13.75;13.75;;;;;19.92;67.86;98992.56;4995501;28;45446;-73
2022/10/24 03:33:35;;;;;;;;;13.50;11.75;;;;;19.86;69.09;99002.78;4995486;28;45367;-71
2022/10/24 03:36:01;;;;;;;;;16.50;13.25;;;;;19.83;69.17;98983.44;4994938;28;45393;-72
2022/10/24 03:38:27;;;;;;;;;11.50;10.00;;;;;19.82;68.45;98971.88;4994636;28;45382;-72
2022/10/24 03:40:52;;;;;;;;;13.25;11.00;;;;;19.80;68.18;98976.50;4995248;28;45642;-72
2022/10/24 03:43:18;;;;;;;;;16.25;11.25;;;;;19.80;67.87;98978.31;4994734;28;45529;-72
2022/10/24 03:45:44;;;;;;;;;16.25;14.25;;;;;19.79;68.08;98977.47;4994952;28;45517;-71
2022/10/24 03:48:10;;;;;;;;;12.50;11.00;;;;;19.79;68.04;98980.13;5001158;28;45442;-72
2022/10/24 03:50:35;;;;;;;;;13.75;10.50;;;;;19.81;68.20;98980.88;5014751;28;45569;-72
2022/10/24 03:53:01;;;;;;;;;14.00;12.00;;;;;19.82;67.84;98993.28;5007610;28;45574;-72
2022/10/24 03:55:27;;;;;;;;;16.00;11.00;;;;;19.84;68.12;98990.47;4994206;28;46058;-72
2022/10/24 03:57:53;;;;;;;;;14.20;13.00;;;;;19.84;68.51;98993.16;5001153;28;45393;-72
2022/10/24 04:00:19;;;;;;;;;14.75;12.00;;;;;19.84;68.95;98999.38;5014122;28;45223;-72
2022/10/24 04:02:45;;;;;;;;;16.00;14.00;;;;;19.84;69.56;99001.19;5014327;28;45438;-72
2022/10/24 04:05:11;;;;;;;;;15.25;13.75;;;;;19.81;69.15;98988.91;5013775;28;45387;-72
2022/10/24 04:07:37;;;;;;;;;13.20;10.60;;;;;19.78;69.68;98997.16;5013388;28;45436;-72
2022/10/24 04:10:03;;;;;;;;;15.75;11.25;;;;;19.70;70.31;99023.69;5013936;28;45482;-72
2022/10/24 04:12:29;;;;;;;;;12.50;12.50;;;;;19.68;71.34;98990.00;5012812;28;45843;-72
2022/10/24 04:14:54;;;;;;;;;16.00;11.25;;;;;19.61;71.04;98973.59;5014035;28;46286;-72
2022/10/24 04:17:19;;;;;;;;;16.50;11.00;;;;;19.56;71.63;98967.78;4994325;28;45405;-72
2022/10/24 04:19:45;;;;;;;;;18.75;16.00;;;;;19.57;71.77;98965.94;4994546;28;45482;-72
2022/10/24 04:22:10;;;;;;;;;14.25;13.75;;;;;19.56;72.52;98983.81;4981905;28;334898;-72
2022/10/24 04:24:38;;;;;;;;;18.50;15.50;;;;;19.56;72.36;98977.63;4995165;28;45349;-72
2022/10/24 04:27:04;;;;;;;;;14.80;9.60;;;;;19.57;71.58;98980.16;4995426;28;45225;-72
2022/10/24 04:29:29;;;;;;;;;12.75;12.00;;;;;19.57;71.72;98977.50;4994273;28;45354;-72
2022/10/24 04:31:54;;;;;;;;;13.50;11.00;;;;;19.57;71.07;98980.16;5000083;28;45422;-72
2022/10/24 04:34:20;;;;;;;;;11.50;10.50;;;;;19.59;71.52;98982.72;5015119;28;46568;-72
2022/10/24 04:36:45;;;;;;;;;14.75;12.00;;;;;19.59;71.97;98996.94;4995428;28;45359;-72
2022/10/24 04:39:11;;;;;;;;;13.00;12.00;;;;;19.60;71.44;99004.00;5007683;28;45648;-72
2022/10/24 04:41:36;;;;;;;;;14.50;12.00;;;;;19.59;71.88;99029.03;5001558;28;45370;-72
2022/10/24 04:44:02;;;;;;;;;14.50;13.25;;;;;19.58;71.51;99008.63;5015251;28;45597;-72
2022/10/24 04:46:28;;;;;;;;;9.20;7.40;;;;;19.56;71.00;98994.50;5008462;28;45456;-72
2022/10/24 04:48:53;;;;;;;;;13.50;13.00;;;;;19.55;71.43;99016.88;4995286;28;45443;-72
2022/10/24 04:51:18;;;;;;;;;11.25;9.50;;;;;19.54;71.72;99028.53;5000506;28;45548;-72
2022/10/24 04:53:44;;;;;;;;;12.00;11.00;;;;;19.54;71.55;99033.88;5014433;28;46572;-72
2022/10/24 04:56:09;;;;;;;;;15.00;13.00;;;;;19.52;71.72;99038.50;4995607;28;45465;-72
2022/10/24 04:58:35;;;;;;;;;14.00;12.50;;;;;19.52;71.28;99046.53;4994916;28;45579;-73
2022/10/24 05:01:00;;;;;;;;;12.50;6.75;;;;;19.51;71.65;99053.69;5013559;28;45402;-72
2022/10/24 05:03:26;;;;;;;;;18.00;11.50;;;;;19.55;72.18;99042.75;5014854;28;45817;-72
2022/10/24 05:05:51;;;;;;;;;14.75;11.25;;;;;19.59;72.14;99038.88;5013044;28;45512;-72
2022/10/24 05:08:17;;;;;;;;;11.75;9.00;;;;;19.63;72.11;99024.28;5014358;28;45447;-72
2022/10/24 05:10:43;;;;;;;;;15.00;12.25;;;;;19.66;72.51;99024.91;5014203;28;45426;-72
2022/10/24 05:13:08;;;;;;;;;17.00;12.25;;;;;19.67;72.55;99031.94;5013684;28;45699;-72
2022/10/24 05:15:34;;;;;;;;;14.00;12.00;;;;;19.68;71.75;99048.84;5007465;28;45351;-72
2022/10/24 05:17:59;;;;;;;;;15.50;10.75;;;;;19.68;71.55;99057.72;5005851;28;45283;-73
2022/10/24 05:20:25;;;;;;;;;19.00;13.75;;;;;19.69;71.34;99054.09;5008647;28;45358;-72
2022/10/24 05:22:51;;;;;;;;;16.50;15.75;;;;;19.67;73.74;99064.03;4993579;28;46448;-73
2022/10/24 05:25:17;;;;;;;;;15.75;14.00;;;;;19.57;74.64;99067.56;4993520;28;45498;-73
2022/10/24 05:27:42;;;;;;;;;18.00;13.00;;;;;19.47;75.44;99054.00;4994482;28;45497;-73
2022/10/24 05:30:08;;;;;;;;;15.50;13.75;;;;;19.42;76.22;99043.69;4993947;28;45366;-73
2022/10/24 05:32:34;;;;;;;;;17.00;12.00;;;;;19.38;75.84;99033.34;5008402;28;47959;-72
2022/10/24 05:35:00;;;;;;;;;13.80;11.80;;;;;19.37;75.80;99034.31;4993866;28;45358;-72
2022/10/24 05:37:26;;;;;;;;;17.50;15.25;;;;;19.35;75.84;99031.75;5004064;28;45327;-73
2022/10/24 05:39:51;;;;;;;;;19.75;15.50;;;;;19.36;75.77;99027.25;4994850;28;45374;-73
2022/10/24 05:42:17;;;;;;;;;17.50;12.25;;;;;19.37;76.20;99029.81;4995906;28;46190;-73
2022/10/24 05:44:42;;;;;;;;;18.75;12.75;;;;;19.36;75.99;99035.28;5012881;28;45478;-71
2022/10/24 05:47:07;;;;;;;;;18.00;13.25;;;;;19.36;75.76;99048.66;5012330;28;46140;-72
2022/10/24 05:49:33;;;;;;;;;14.25;14.25;;;;;19.35;76.26;99063.00;4994365;28;45387;-73
2022/10/24 05:51:58;;;;;;;;;26.75;21.75;;;;;19.33;77.58;99070.28;4994689;28;46315;-72
2022/10/24 05:54:24;;;;;;;;;13.25;12.75;;;;;19.28;76.47;99027.00;5010962;28;45804;-72
2022/10/24 05:56:49;;;;;;;;;22.75;15.75;;;;;19.22;77.14;99044.38;5012377;28;45603;-72
2022/10/24 05:59:15;;;;;;;;;18.25;15.75;;;;;19.15;77.98;99077.88;5011108;28;45393;-72
2022/10/24 06:01:40;;;;;;;;;15.00;11.75;;;;;19.10;78.06;99088.91;5001175;28;45408;-72
2022/10/24 06:04:06;;;;;;;;;16.50;15.25;;;;;19.03;79.36;99114.41;4992618;28;45443;-73
2022/10/24 06:06:33;;;;;;;;;29.50;20.50;;;;;18.95;80.58;99098.06;5001283;28;45459;-72
2022/10/24 06:08:59;;;;;;;;;16.00;13.50;;;;;18.88;80.49;99080.81;5007702;28;45493;-73
2022/10/24 06:11:24;;;;;;;;;16.75;12.75;;;;;18.80;80.31;99118.75;5011459;28;45491;-72
2022/10/24 06:13:49;;;;;;;;;18.25;14.75;;;;;18.67;81.42;99027.16;5027115;28;45450;-72
2022/10/24 06:16:15;;;;;;;;;11.25;10.50;;;;;18.55;80.89;99053.91;5001043;28;45531;-72
2022/10/24 06:18:40;;;;;;;;;8.25;6.50;;;;;18.49;79.53;99072.06;4997395;28;45499;-78
2022/10/24 06:21:07;;;;;;;;;12.50;10.00;;;;;18.48;79.84;99125.56;5012123;28;46298;-78
2022/10/24 06:23:36;;;;;;;;;10.40;8.60;;;;;18.47;79.82;99142.56;5012388;28;45493;-77
2022/10/24 06:26:06;;;;;;;;;14.00;13.00;;;;;18.44;80.17;99154.31;5012259;28;45339;-78
2022/10/24 06:28:31;;;;;;;;;16.00;11.50;;;;;18.43;82.39;99149.91;4997415;28;45379;-72
2022/10/24 06:30:57;;;;;;;;;2.00;2.00;;;;;18.42;80.24;99160.75;4996399;28;46480;-72
2022/10/24 06:33:22;;;;;;;;;14.75;10.00;;;;;18.40;83.31;99179.53;5009495;28;45483;-72
2022/10/24 06:35:48;;;;;;;;;14.75;12.75;;;;;18.39;83.32;99196.50;5008109;28;45445;-73
2022/10/24 06:38:13;;;;;;;;;16.25;13.00;;;;;18.36;84.67;99194.06;5002177;28;45406;-73
2022/10/24 06:40:41;;;;;;;;;11.25;10.75;;;;;18.33;84.23;99154.22;5015653;28;45529;-72
2022/10/24 06:43:07;;;;;;;;;14.80;11.00;;;;;18.31;84.68;99161.47;5001869;28;45396;-72
2022/10/24 06:45:32;;;;;;;;;13.00;10.50;;;;;18.26;85.09;99157.47;5007182;28;45327;-72
2022/10/24 06:47:58;;;;;;;;;15.50;14.25;;;;;18.21;84.75;99172.94;5009104;28;45568;-72
2022/10/24 06:50:23;;;;;;;;;13.50;9.50;;;;;18.16;84.92;99162.56;5012323;28;45582;-71
2022/10/24 06:52:49;;;;;;;;;12.25;11.00;;;;;18.10;85.08;99155.00;5014679;28;45457;-72
2022/10/24 06:55:14;;;;;;;;;19.25;18.25;;;;;18.05;85.14;99165.16;5013615;28;45595;-72
2022/10/24 06:57:40;;;;;;;;;13.50;13.25;;;;;18.01;85.50;99171.66;5014606;28;45474;-72
2022/10/24 07:00:07;;;;;;;;;12.50;10.25;;;;;17.99;85.57;99184.25;5004875;28;45622;-71
2022/10/24 07:02:33;;;;;;;;;14.20;11.00;;;;;17.98;85.14;99175.38;4998807;28;45511;-72
2022/10/24 07:04:58;;;;;;;;;14.00;13.00;;;;;17.96;86.57;99160.44;5081198;22;45996;-68
2022/10/24 07:07:24;;;;;;;;;12.00;10.75;;;;;17.94;86.07;99162.34;5015985;28;45406;-69
2022/10/24 07:09:54;;;;;;;;;11.50;10.25;;;;;17.92;87.02;99161.63;5011078;28;46557;-69
2022/10/24 07:12:22;;;;;;;;;17.00;13.00;;;;;17.89;87.99;99177.84;5014139;28;45488;-69
2022/10/24 07:14:48;;;;;;;;;12.75;12.25;;;;;17.89;87.66;99175.19;5012521;28;45643;-71
2022/10/24 07:17:15;;;;;;;;;9.25;9.25;;;;;17.91;87.52;99173.25;5012858;28;45784;-71
2022/10/24 07:19:40;;;;;;;;;19.00;14.25;;;;;17.92;88.07;99165.16;5013882;28;45421;-70
2022/10/24 07:22:06;;;;;;;;;12.50;11.25;;;;;17.93;87.79;99166.84;5007701;28;45680;-71
2022/10/24 07:24:31;;;;;;;;;12.25;10.00;;;;;17.93;87.68;99158.00;4996644;28;45577;-70
2022/10/24 07:26:58;;;;;;;;;14.50;11.25;;;;;17.93;88.49;99150.84;5025069;28;46039;-70
2022/10/24 07:29:23;;;;;;;;;12.75;11.50;;;;;17.97;88.29;99157.66;5017163;28;45681;-70
2022/10/24 07:31:49;;;;;;;;;10.75;10.25;;;;;18.00;87.93;99164.59;5013098;28;45499;-70
2022/10/24 07:34:15;;;;;;;;;15.00;12.25;;;;;18.00;88.34;99156.59;5017515;28;45596;-70
2022/10/24 07:36:40;;;;;;;;;11.75;11.75;;;;;18.02;88.08;99152.03;5013385;28;45672;-70
2022/10/24 07:39:06;;;;;;;;;17.00;13.50;;;;;18.01;88.04;99151.16;5008310;28;46341;-70
2022/10/24 07:41:33;;;;;;;;;11.75;11.00;;;;;18.02;87.81;99155.53;5008984;28;45474;-69
2022/10/24 07:44:01;;;;;;;;;13.50;10.25;;;;;17.98;88.33;99146.03;5014556;28;45500;-69
2022/10/24 07:46:27;;;;;;;;;16.25;14.75;;;;;17.94;87.91;99143.69;5015492;28;45551;-69
2022/10/24 07:48:53;;;;;;;;;11.25;11.00;;;;;17.92;88.86;99129.63;5013647;28;45551;-70
2022/10/24 07:51:21;;;;;;;;;13.75;10.75;;;;;17.90;89.24;99124.41;5015411;28;45638;-70
2022/10/24 07:53:47;;;;;;;;;12.75;9.75;;;;;17.89;88.84;99137.84;5012542;28;45715;-69
2022/10/24 07:56:14;;;;;;;;;11.00;10.25;;;;;17.88;89.19;99126.31;5011172;28;45543;-70
2022/10/24 07:58:42;;;;;;;;;12.50;11.00;;;;;17.89;90.00;99136.03;5019520;28;46172;-70
2022/10/24 08:01:17;;;;;;;;;12.60;10.20;;;;;17.95;88.76;99134.72;5014747;28;45591;-71
2022/10/24 08:03:45;;;;;;;;;10.75;10.75;;;;;17.98;89.78;99137.19;5014544;28;45590;-72
2022/10/24 08:06:14;;;;;;;;;3.25;3.25;;;;;18.00;90.28;99138.78;5003447;28;45578;-72
2022/10/24 08:08:40;;;;;;;;;11.00;9.00;;;;;18.04;89.85;99132.28;5006237;28;45634;-72
2022/10/24 08:11:08;;;;;;;;;12.00;11.25;;;;;18.11;89.57;99125.53;5008246;28;45636;-72
2022/10/24 08:13:33;;;;;;;;;14.50;10.50;;;;;18.16;88.85;99119.88;5013893;28;45642;-72
2022/10/24 08:15:59;;;;;;;;;12.50;10.25;;;;;18.19;88.69;99116.16;5011693;28;45631;-71
2022/10/24 08:18:24;;;;;;;;;12.00;11.75;;;;;18.22;88.75;99129.28;5011079;28;45499;-72
2022/10/24 08:21:01;;;;;;;;;15.00;13.75;;;;;18.26;88.71;99138.78;5010580;28;45802;-72
2022/10/24 08:23:27;;;;;;;;;12.80;11.00;;;;;18.28;88.50;99148.34;5012745;28;45670;-73
2022/10/24 08:25:52;;;;;;;;;14.50;13.50;;;;;18.28;88.01;99140.34;5014291;28;45549;-73
2022/10/24 08:28:18;;;;;;;;;13.00;10.75;;;;;18.30;88.45;99124.22;5014918;28;45632;-73
2022/10/24 08:30:53;;;;;;;;;14.75;9.75;;;;;18.32;88.31;99135.66;5012858;28;45537;-73
2022/10/24 08:33:18;;;;;;;;;16.00;11.75;;;;;18.31;88.66;99133.94;5006241;28;45566;-73
2022/10/24 08:35:44;;;;;;;;;16.50;13.75;;;;;18.29;88.33;99138.53;5015738;28;45595;-72
2022/10/24 08:38:11;;;;;;;;;16.75;7.25;;;;;18.29;88.64;99133.19;5013075;28;46570;-72
2022/10/24 08:40:36;;;;;;;;;15.40;11.40;;;;;18.30;88.90;99125.09;5013321;28;45513;-73
2022/10/24 08:43:02;;;;;;;;;12.25;10.00;;;;;18.31;88.91;99118.78;5011897;28;45564;-71
2022/10/24 08:45:42;;;;;;;;;12.50;10.25;;;;;18.33;88.79;99127.53;5017908;28;45574;-72
2022/10/24 08:48:12;;;;;;;;;12.75;10.75;;;;;18.35;88.68;99122.94;5009162;28;46434;-72
2022/10/24 08:50:42;;;;;;;;;10.40;10.40;;;;;18.36;88.70;99113.97;5014132;28;45574;-72
2022/10/24 08:53:27;;;;;;;;;14.00;10.75;;;;;18.39;88.59;99123.59;5015050;28;45638;-72
2022/10/24 08:55:56;;;;;;;;;10.50;9.00;;;;;18.40;88.75;99127.97;5016729;28;45496;-72
2022/10/24 08:58:31;;;;;;;;;14.00;11.00;;;;;18.37;88.83;99121.03;5015359;28;46051;-72
2022/10/24 09:01:00;;;;;;;;;13.80;13.00;;;;;18.37;88.75;99118.34;5015111;28;45824;-72
2022/10/24 09:03:44;;;;;;;;;11.60;9.20;;;;;18.38;88.82;99116.53;5014072;28;45666;-72
2022/10/24 09:06:17;;;;;;;;;12.75;11.00;;;;;18.37;88.73;99118.34;5011906;28;45596;-73
2022/10/24 09:08:45;;;;;;;;;8.20;8.20;;;;;18.39;88.57;99118.25;5015325;28;47608;-73
2022/10/24 09:11:19;;;;;;;;;13.00;10.60;;;;;18.39;88.89;99115.56;5011841;28;45677;-73
2022/10/24 09:13:45;;;;;;;;;12.20;10.20;;;;;18.41;88.56;99113.66;5012735;28;45608;-72
2022/10/24 09:16:18;;;;;;;;;12.25;10.50;;;;;18.44;88.88;99116.94;5013904;28;45587;-73
2022/10/24 09:18:47;;;;;;;;;11.75;9.00;;;;;18.48;88.26;99117.56;5011669;28;45722;-73
2022/10/24 09:21:16;;;;;;;;;9.20;8.80;;;;;18.52;87.94;99123.53;5013645;28;45746;-73
2022/10/24 09:23:42;;;;;;;;;10.00;9.50;;;;;18.57;87.53;99111.56;5009515;28;45725;-73
2022/10/24 09:26:15;;;;;;;;;12.75;9.75;;;;;18.64;87.81;99099.50;5015236;28;45530;-72
2022/10/24 09:28:41;;;;;;;;;9.75;9.75;;;;;18.71;87.07;99097.25;4999655;28;48059;-73
2022/10/24 09:31:19;;;;;;;;;13.50;10.50;;;;;18.80;86.40;99080.50;5016936;28;45558;-72
2022/10/24 09:33:48;;;;;;;;;12.75;11.00;;;;;18.88;86.48;99096.84;5016770;28;45631;-72
2022/10/24 09:36:16;;;;;;;;;14.00;10.75;;;;;18.95;86.45;99119.44;5024539;28;45610;-71
2022/10/24 09:38:43;;;;;;;;;9.20;8.00;;;;;19.02;85.97;99112.69;5011262;28;45721;-71
2022/10/24 09:41:32;;;;;;;;;9.40;9.40;;;;;19.09;84.95;99105.09;5028253;28;45530;-72
2022/10/24 09:44:00;;;;;;;;;7.80;6.40;;;;;19.14;84.75;99109.09;5019667;28;45630;-72
2022/10/24 09:46:33;;;;;;;;;12.00;9.00;;;;;19.18;84.61;99094.53;5011189;28;45515;-72
2022/10/24 09:49:07;;;;;;;;;6.00;4.00;;;;;19.17;83.91;99124.91;5012768;28;45500;-72
2022/10/24 09:51:45;;;;;;;;;11.20;8.40;;;;;19.16;84.40;99125.00;5012836;28;45516;-72
2022/10/24 09:54:16;;;;;;;;;7.20;7.20;;;;;19.20;83.85;99144.34;4994738;28;45505;-70
2022/10/24 09:56:45;;;;;;;;;12.60;9.80;;;;;19.18;84.47;99147.13;5010433;28;45344;-71
2022/10/24 09:59:26;;;;;;;;;13.20;11.40;;;;;19.17;84.30;99167.66;5012388;28;45463;-71
2022/10/24 10:04:26;;;;;;;;;8.80;6.60;;;;;19.26;83.41;99175.97;5532392;22;45427;-70
2022/10/24 10:06:53;;;;;;;;;7.00;7.00;;;;;19.27;83.42;99183.84;5021478;28;45529;-71
2022/10/24 10:09:30;;;;;;;;;7.40;7.20;;;;;19.30;82.28;99199.66;5015849;28;47887;-69
2022/10/24 10:11:57;;;;;;;;;9.60;7.40;;;;;19.14;82.40;99197.28;5016032;28;45465;-69
2022/10/24 10:14:27;;;;;;;;;13.60;9.80;;;;;19.06;82.45;99207.69;5016172;28;45377;-69
2022/10/24 10:17:05;;;;;;;;;10.25;7.75;;;;;18.97;82.33;99211.03;5014193;28;45495;-68
2022/10/24 10:19:37;;;;;;;;;9.60;7.40;;;;;18.91;83.30;99214.16;5015766;28;45549;-69
2022/10/24 10:22:20;;;;;;;;;7.00;5.20;;;;;18.89;83.26;99210.75;5015752;28;45445;-69
2022/10/24 10:24:46;;;;;;;;;10.60;7.00;;;;;18.90;82.47;99201.78;5013897;28;46130;-70
2022/10/24 10:27:35;;;;;;;;;12.50;9.00;;;;;19.00;82.90;99200.13;5015192;28;45383;-70
2022/10/24 10:30:13;;;;;;;;;8.20;6.80;;;;;19.16;82.02;99192.69;5018838;28;46534;-71
2022/10/24 10:33:16;;;;;;;;;7.40;7.00;;;;;19.30;82.26;99194.31;5021872;28;45467;-71
2022/10/24 10:35:52;;;;;;;;;10.00;9.00;;;;;19.50;81.84;99195.53;5015173;28;45445;-71
2022/10/24 10:38:41;;;;;;;;;12.50;11.50;;;;;19.67;81.53;99196.94;4999109;28;45575;-68
2022/10/24 10:41:32;;;;;;;;;9.80;7.00;;;;;19.82;81.36;99201.97;5011193;28;45576;-68
2022/10/24 10:43:58;;;;;;;;;5.40;5.00;;;;;19.94;80.92;99210.88;5000959;28;45459;-68
2022/10/24 10:46:33;;;;;;;;;8.50;7.00;;;;;20.04;81.21;99213.69;5000188;28;46074;-68
2022/10/24 10:49:04;;;;;;;;;14.20;6.20;;;;;20.11;79.16;99212.22;4999670;28;45449;-67
2022/10/24 10:51:50;;;;;;;;;8.40;8.20;;;;;20.13;78.45;99204.94;5001454;28;45642;-68
2022/10/24 10:54:33;;;;;;;;;10.60;9.00;;;;;20.19;79.31;99209.81;5000759;28;45547;-67
2022/10/24 10:57:05;;;;;;;;;11.00;8.00;;;;;20.34;79.19;99197.91;5002423;28;45596;-67
2022/10/24 10:59:47;;;;;;;;;5.40;5.40;;;;;20.44;78.07;99192.72;5001021;28;45405;-67
2022/10/24 11:02:43;;;;;;;;;7.00;6.00;;;;;20.54;77.05;99182.97;4999874;28;48042;-67
2022/10/24 11:05:31;;;;;;;;;7.00;6.00;;;;;20.58;76.73;99176.41;5001480;28;45832;-68
2022/10/24 11:08:09;;;;;;;;;6.20;6.20;;;;;20.63;76.85;99189.41;5002280;28;45528;-67
2022/10/24 11:10:41;;;;;;;;;6.40;6.00;;;;;20.71;77.03;99178.94;4999133;28;45538;-67
2022/10/24 11:13:17;;;;;;;;;6.00;6.00;;;;;20.80;75.90;99180.88;5001637;28;45510;-67
2022/10/24 11:15:48;;;;;;;;;8.20;5.00;;;;;20.87;75.38;99182.09;4998144;28;45468;-68
2022/10/24 11:18:16;;;;;;;;;7.60;6.00;;;;;20.88;75.56;99179.28;4999092;28;45637;-67
2022/10/24 11:20:47;;;;;;;;;3.40;3.40;;;;;20.90;74.81;99179.16;4998582;28;45522;-67
2022/10/24 11:23:15;;;;;;;;;6.00;3.80;;;;;20.91;74.06;99191.59;4999697;28;45608;-67
2022/10/24 11:25:48;;;;;;;;;5.40;4.00;;;;;20.94;73.85;99191.34;4998987;28;45579;-67
2022/10/24 11:28:38;;;;;;;;;3.60;3.40;;;;;21.02;73.98;99193.38;4999521;28;45607;-67
2022/10/24 11:31:11;;;;;;;;;4.00;3.60;;;;;21.04;73.96;99186.91;4998831;28;45838;-67
2022/10/24 11:34:21;;;;;;;;;4.00;3.40;;;;;21.12;73.99;99172.88;4999424;28;45641;-67